Impacts TAF Board INFO
FOR SITUATIONAL AWARENESS. NOT TO BE USED FOR FLIGHT PLANNING PURPOSES.
IDs:

KJAN - Jackson/Evers Intl, MS, US

Issued at 2320 UTC 20 Jan 2018
Updated at 0441 UTC 21 Jan 2018
Potential Impact None Slight Moderate High
Time0354Z 21/05Z 21/06Z 21/07Z 21/08Z 21/09Z 21/10Z 21/11Z 21/12Z 21/13Z 21/14Z 21/15Z 21/16Z 21/17Z>>
Type OBS PRVL PRVL PRVL PRVL PRVL PRVL PRVL PRVL PRVL PRVL PRVL PRVL PRVL
VIS 10 >6 >6 >6 >6 >6 >6 >6 >6 >6 >6 >6 >6 >6
CIG -- 120 120 120 120 120 120 120 120 25 25 25 25 50
Cover FEW BKN BKN BKN BKN BKN BKN BKN BKN BKN BKN BKN BKN BKN
FltCat VFR VFR VFR VFR VFR VFR VFR VFR VFR MVFR MVFR MVFR MVFR VFR
WX -- -- -- -- -- -- -- -- -- -- -- -- -- --
WDir 160 180 180 180 180 180 180 180 180 160 160 160 160 160
WSpd 8 9 9 9 9 9 9 9 9 11 11 11 11 13
WGst -- -- -- -- -- -- -- -- -- -- -- -- -- 19

Raw TAF
KJAN 202320Z 2100/2124 18009KT P6SM SCT040 BKN120
  FM211300 16011KT P6SM BKN025
  FM211700 16013G19KT P6SM BKN050


Raw METAR
KJAN 210354Z 16008KT 10SM FEW120 12/08 A3018 RMK AO2 SLP217 T01170083
KJAN 210254Z 16008KT 10SM FEW120 13/09 A3017 RMK AO2 SLP216 60000 T01330094 51006
KJAN 210154Z 16007KT 10SM FEW120 14/10 A3017 RMK AO2 RAE01 SLP216 P0000 T01440100

METAR Board
Radar Display
Forecast Discussion

FOR SITUATIONAL AWARENESS. NOT TO BE USED FOR FLIGHT PLANNING PURPOSES.